Time;durP1;ratioP1;P1;durP2;ratioP2;P2;SDS_P1;SDS_P2;PMS_P1;PMS_P2;Temp;Humidity;BMP_temperature;BMP_pressure;BME280_temperature;BME280_humidity;BME280_pressure;Samples;Min_cycle;Max_cycle;Signal;HPM_P1;HPM_P2
2022/07/13 00:01:57;;;;;;;3.70;2.70;;;27.70;1.00;;;;;;5153644;27;20042;-58
2022/07/13 00:04:22;;;;;;;5.65;2.60;;;27.80;1.00;;;;;;5150961;27;20153;-57
2022/07/13 00:06:48;;;;;;;7.25;2.70;;;27.80;1.00;;;;;;5152277;27;20125;-58
2022/07/13 00:09:13;;;;;;;2.63;2.40;;;27.70;1.00;;;;;;5151792;27;20067;-57
2022/07/13 00:11:40;;;;;;;4.28;2.58;;;27.60;1.00;;;;;;5153456;27;20030;-57
2022/07/13 00:14:05;;;;;;;3.50;2.47;;;27.70;1.00;;;;;;5151396;27;20074;-57
2022/07/13 00:16:31;;;;;;;6.90;2.70;;;27.70;1.00;;;;;;5153081;27;20039;-58
2022/07/13 00:18:57;;;;;;;6.13;3.10;;;27.80;1.00;;;;;;5151437;27;20030;-57
2022/07/13 00:21:22;;;;;;;5.40;2.53;;;27.70;1.00;;;;;;5151680;27;20026;-55
2022/07/13 00:23:48;;;;;;;3.70;2.45;;;27.90;1.00;;;;;;5142640;27;20045;-57
2022/07/13 00:26:13;;;;;;;6.80;3.28;;;27.90;1.00;;;;;;5151268;27;20395;-58
2022/07/13 00:28:39;;;;;;;3.63;2.40;;;27.90;1.00;;;;;;5149901;27;20026;-55
2022/07/13 00:31:05;;;;;;;4.63;2.38;;;28.00;1.00;;;;;;5149452;27;20059;-56
2022/07/13 00:33:30;;;;;;;2.83;2.55;;;28.10;1.00;;;;;;5141403;27;20039;-58
2022/07/13 00:35:56;;;;;;;6.10;2.60;;;28.10;1.00;;;;;;5151278;27;20027;-58
2022/07/13 00:38:21;;;;;;;5.40;3.00;;;28.10;1.00;;;;;;5151106;27;20544;-56
2022/07/13 00:40:47;;;;;;;4.30;2.70;;;27.90;1.00;;;;;;5149716;27;20026;-55
2022/07/13 00:43:12;;;;;;;4.28;2.63;;;27.80;1.00;;;;;;5153153;27;20035;-56
2022/07/13 00:45:38;;;;;;;4.43;2.63;;;27.80;1.00;;;;;;5147030;27;20023;-57
2022/07/13 00:48:05;;;;;;;3.38;2.80;;;27.80;1.00;;;;;;5128313;27;20027;-58
2022/07/13 00:50:31;;;;;;;5.57;2.65;;;27.80;1.00;;;;;;5144978;27;20023;-58
2022/07/13 00:52:57;;;;;;;2.97;2.30;;;27.90;1.00;;;;;;5143005;27;20533;-58
2022/07/13 00:55:24;;;;;;;5.03;2.60;;;27.70;1.00;;;;;;5146137;27;20018;-57
2022/07/13 00:57:50;;;;;;;5.70;2.50;;;27.70;1.00;;;;;;5150369;27;20464;-57
2022/07/13 01:00:16;;;;;;;3.65;2.70;;;27.80;1.00;;;;;;5151556;27;20069;-56
2022/07/13 01:02:43;;;;;;;4.30;2.30;;;27.60;1.00;;;;;;5152989;27;20034;-58
2022/07/13 01:05:13;;;;;;;7.30;2.80;;;27.60;1.00;;;;;;5139045;27;20023;-57
2022/07/13 01:07:39;;;;;;;5.00;2.88;;;27.60;1.00;;;;;;5151108;27;20029;-58
2022/07/13 01:10:07;;;;;;;4.80;2.65;;;27.50;1.00;;;;;;5151289;27;20041;-56
2022/07/13 01:12:34;;;;;;;3.58;2.60;;;27.50;1.00;;;;;;5148186;27;20022;-56
2022/07/13 01:15:00;;;;;;;2.50;2.30;;;27.40;1.00;;;;;;5135124;27;20092;-58
2022/07/13 01:17:26;;;;;;;2.97;2.45;;;27.40;1.00;;;;;;5146166;27;20030;-58
2022/07/13 01:19:53;;;;;;;5.22;2.40;;;27.40;1.00;;;;;;5146650;27;20022;-59
2022/07/13 01:22:25;;;;;;;5.00;2.60;;;27.50;1.00;;;;;;5151453;27;20082;-58
2022/07/13 01:24:52;;;;;;;3.20;2.42;;;27.60;1.00;;;;;;5149780;27;20054;-57
2022/07/13 01:27:18;;;;;;;2.45;2.05;;;27.40;1.00;;;;;;5150900;27;20023;-58
2022/07/13 01:29:44;;;;;;;5.50;2.70;;;27.40;1.00;;;;;;5149723;27;20015;-58
2022/07/13 01:32:10;;;;;;;3.20;2.42;;;27.40;1.00;;;;;;5152896;27;20383;-55
2022/07/13 01:34:36;;;;;;;2.92;2.30;;;27.30;1.00;;;;;;5149861;27;20039;-55
2022/07/13 01:37:02;;;;;;;4.03;2.70;;;27.00;1.00;;;;;;5144399;27;20034;-58
2022/07/13 01:39:28;;;;;;;2.95;2.10;;;27.00;1.00;;;;;;5147881;27;20106;-57
2022/07/13 01:41:53;;;;;;;3.92;2.20;;;26.90;1.00;;;;;;5152126;27;20109;-57
2022/07/13 01:44:19;;;;;;;3.17;2.30;;;27.00;1.00;;;;;;5149548;27;20041;-58
2022/07/13 01:46:45;;;;;;;4.53;2.47;;;26.90;1.00;;;;;;5150066;27;20027;-58
2022/07/13 01:49:10;;;;;;;3.63;2.65;;;26.70;1.00;;;;;;5142002;27;20034;-56
2022/07/13 01:51:37;;;;;;;5.00;2.92;;;26.80;1.00;;;;;;5148774;27;20023;-58
2022/07/13 01:54:03;;;;;;;3.30;2.03;;;26.80;1.00;;;;;;5148373;27;20027;-55
2022/07/13 01:56:29;;;;;;;3.35;2.10;;;26.50;1.00;;;;;;5148385;27;20041;-56
2022/07/13 01:58:54;;;;;;;4.38;2.10;;;26.60;1.00;;;;;;5150572;27;20102;-56
2022/07/13 02:01:20;;;;;;;5.50;2.65;;;26.80;1.00;;;;;;5136481;27;21185;-58
2022/07/13 02:03:45;;;;;;;2.63;2.30;;;26.80;1.00;;;;;;5141204;27;20101;-57
2022/07/13 02:06:12;;;;;;;3.50;2.40;;;26.50;1.00;;;;;;5138568;27;20026;-58
2022/07/13 02:08:37;;;;;;;3.00;2.38;;;26.50;1.00;;;;;;5148283;27;20425;-53
2022/07/13 02:11:03;;;;;;;2.95;2.40;;;26.40;1.00;;;;;;5150941;27;20018;-56
2022/07/13 02:13:29;;;;;;;2.53;2.33;;;26.40;1.00;;;;;;5136417;27;20035;-57
2022/07/13 02:15:55;;;;;;;2.88;2.00;;;26.50;1.00;;;;;;5136995;27;20012;-58
2022/07/13 02:18:21;;;;;;;2.85;1.90;;;26.40;1.00;;;;;;5151201;27;20045;-58
2022/07/13 02:20:47;;;;;;;3.78;2.00;;;26.40;1.00;;;;;;5143772;27;20469;-57
2022/07/13 02:23:12;;;;;;;2.92;2.22;;;26.50;1.00;;;;;;5140659;27;20023;-58
2022/07/13 02:25:38;;;;;;;2.03;1.90;;;26.60;1.00;;;;;;5141015;27;20019;-58
2022/07/13 02:28:06;;;;;;;4.50;2.10;;;26.80;1.00;;;;;;5143989;27;20452;-59
2022/07/13 02:30:32;;;;;;;2.95;2.10;;;26.60;1.00;;;;;;5153834;27;20113;-56
2022/07/13 02:32:57;;;;;;;4.15;1.70;;;26.70;1.00;;;;;;5152958;27;20469;-58
2022/07/13 02:35:23;;;;;;;2.90;2.25;;;26.70;1.00;;;;;;5155738;27;20369;-55
2022/07/13 02:37:48;;;;;;;2.28;2.08;;;26.60;1.00;;;;;;5152382;27;20035;-58
2022/07/13 02:40:14;;;;;;;3.47;2.10;;;26.60;1.00;;;;;;5152818;27;20494;-57
2022/07/13 02:42:40;;;;;;;2.97;1.90;;;26.50;1.00;;;;;;5155053;27;20058;-54
2022/07/13 02:45:06;;;;;;;2.33;2.10;;;26.50;1.00;;;;;;5153101;27;20019;-57
2022/07/13 02:47:32;;;;;;;5.40;2.53;;;26.50;1.00;;;;;;5154193;27;20027;-58
2022/07/13 02:49:58;;;;;;;3.58;1.98;;;26.40;1.00;;;;;;5150864;27;20027;-57
2022/07/13 02:52:23;;;;;;;4.82;2.10;;;26.50;1.00;;;;;;5153209;27;20376;-57
2022/07/13 02:54:49;;;;;;;4.45;2.47;;;26.50;1.00;;;;;;5153185;27;20639;-59
2022/07/13 02:57:15;;;;;;;2.47;2.28;;;26.50;1.00;;;;;;5152238;27;20475;-59
2022/07/13 02:59:40;;;;;;;2.83;2.20;;;26.50;1.00;;;;;;5150470;27;20018;-58
2022/07/13 03:02:06;;;;;;;2.35;1.83;;;26.40;1.00;;;;;;5156096;27;20472;-58
2022/07/13 03:04:33;;;;;;;3.40;1.77;;;26.20;1.00;;;;;;5151137;27;20050;-55
2022/07/13 03:06:59;;;;;;;3.83;2.17;;;26.10;1.00;;;;;;5154270;27;20150;-56
2022/07/13 03:09:25;;;;;;;2.60;1.95;;;26.10;1.00;;;;;;5151676;27;20340;-57
2022/07/13 03:11:52;;;;;;;2.75;1.92;;;26.00;1.00;;;;;;5152161;27;20025;-58
2022/07/13 03:14:18;;;;;;;2.03;1.77;;;26.00;1.00;;;;;;5155171;27;20031;-58
2022/07/13 03:16:44;;;;;;;3.90;1.80;;;26.00;1.00;;;;;;5155139;27;20039;-58
2022/07/13 03:19:10;;;;;;;2.00;1.80;;;26.00;1.00;;;;;;5143708;27;20042;-58
2022/07/13 03:21:36;;;;;;;2.03;1.77;;;26.10;1.00;;;;;;5148487;27;20034;-58
2022/07/13 03:24:02;;;;;;;4.18;1.63;;;26.20;1.00;;;;;;5151983;27;20020;-57
2022/07/13 03:26:28;;;;;;;2.90;2.13;;;26.40;1.00;;;;;;5152326;27;20034;-56
2022/07/13 03:28:54;;;;;;;2.55;2.03;;;26.40;1.00;;;;;;5152862;27;20019;-59
2022/07/13 03:31:19;;;;;;;3.42;2.10;;;26.40;1.00;;;;;;5154112;27;20105;-56
2022/07/13 03:33:45;;;;;;;2.30;2.10;;;26.40;1.00;;;;;;5141023;27;20047;-55
2022/07/13 03:36:11;;;;;;;2.35;1.90;;;26.30;1.00;;;;;;5150615;27;20035;-56
2022/07/13 03:38:37;;;;;;;2.55;2.10;;;26.20;1.00;;;;;;5150781;27;20117;-58
2022/07/13 03:41:02;;;;;;;4.38;1.77;;;26.20;1.00;;;;;;5153120;27;20023;-57
2022/07/13 03:43:28;;;;;;;2.95;2.00;;;26.30;1.00;;;;;;5145128;27;20027;-57
2022/07/13 03:45:54;;;;;;;1.52;1.42;;;26.30;1.00;;;;;;5147197;27;20110;-59
2022/07/13 03:48:19;;;;;;;4.50;2.42;;;26.30;1.00;;;;;;5151896;27;20064;-57
2022/07/13 03:50:46;;;;;;;3.03;1.75;;;26.30;1.00;;;;;;5153920;27;20029;-57
2022/07/13 03:53:12;;;;;;;2.97;1.80;;;26.10;1.00;;;;;;5149380;27;20029;-59
2022/07/13 03:55:39;;;;;;;2.58;1.65;;;26.20;1.00;;;;;;5149637;27;20019;-54
2022/07/13 03:58:05;;;;;;;2.83;1.67;;;26.20;1.00;;;;;;5151653;27;20035;-58
2022/07/13 04:00:31;;;;;;;4.75;1.60;;;26.20;1.00;;;;;;5151577;27;20027;-57
2022/07/13 04:02:57;;;;;;;5.30;2.22;;;26.20;1.00;;;;;;5152020;27;20034;-56
2022/07/13 04:05:23;;;;;;;3.95;1.80;;;26.10;1.00;;;;;;5141648;27;20383;-58
2022/07/13 04:07:49;;;;;;;4.40;1.73;;;26.20;1.00;;;;;;5153244;27;20031;-58
2022/07/13 04:10:18;;;;;;;4.28;1.70;;;26.30;1.00;;;;;;5148130;27;20112;-57
2022/07/13 04:12:44;;;;;;;3.08;1.80;;;26.30;1.00;;;;;;5144577;27;21616;-57
2022/07/13 04:15:10;;;;;;;2.00;1.70;;;26.20;1.00;;;;;;5152388;27;20029;-57
2022/07/13 04:17:36;;;;;;;3.40;1.70;;;26.20;1.00;;;;;;5154526;27;20033;-56
2022/07/13 04:20:03;;;;;;;2.70;1.85;;;26.30;1.00;;;;;;5153702;27;20031;-57
2022/07/13 04:22:29;;;;;;;5.13;2.00;;;26.30;1.00;;;;;;5152793;27;20018;-58
2022/07/13 04:24:55;;;;;;;2.70;2.42;;;26.30;1.00;;;;;;5149024;27;20502;-58
2022/07/13 04:27:20;;;;;;;3.22;2.30;;;26.20;1.00;;;;;;5149210;27;20034;-57
2022/07/13 04:29:46;;;;;;;6.07;2.50;;;26.20;1.00;;;;;;5153129;27;20026;-59
2022/07/13 04:32:12;;;;;;;3.70;2.15;;;26.20;1.00;;;;;;5140700;27;20031;-58
2022/07/13 04:34:37;;;;;;;3.60;2.60;;;26.20;1.00;;;;;;5146382;27;20051;-58
2022/07/13 04:37:03;;;;;;;5.82;2.38;;;25.90;1.00;;;;;;5150189;27;20038;-58
2022/07/13 04:39:29;;;;;;;3.38;2.50;;;25.90;1.00;;;;;;5152367;27;20029;-59
2022/07/13 04:41:54;;;;;;;2.88;2.58;;;25.80;1.00;;;;;;5151732;27;20027;-57
2022/07/13 04:44:20;;;;;;;5.95;2.97;;;25.80;1.00;;;;;;5152815;27;20384;-59
2022/07/13 04:46:46;;;;;;;5.22;2.35;;;25.90;1.00;;;;;;5153345;27;20030;-59
2022/07/13 04:49:12;;;;;;;5.10;3.15;;;25.80;1.00;;;;;;5153824;27;20353;-59
2022/07/13 04:51:37;;;;;;;3.85;3.17;;;25.90;1.00;;;;;;5151058;27;20026;-57
2022/07/13 04:54:04;;;;;;;3.80;2.25;;;25.90;1.00;;;;;;5151434;27;20026;-59
2022/07/13 04:56:30;;;;;;;5.95;2.83;;;25.90;1.00;;;;;;5150582;27;20042;-58
2022/07/13 04:58:55;;;;;;;4.20;2.78;;;25.90;1.00;;;;;;5152672;27;20124;-58
2022/07/13 05:01:21;;;;;;;2.60;2.40;;;26.00;1.00;;;;;;5150947;27;20027;-57
2022/07/13 05:03:47;;;;;;;3.55;2.35;;;25.90;1.00;;;;;;5150932;27;20428;-58
2022/07/13 05:06:14;;;;;;;4.30;2.85;;;26.10;1.00;;;;;;5151540;27;20546;-58
2022/07/13 05:08:40;;;;;;;3.53;2.22;;;25.90;1.00;;;;;;5151819;27;20026;-56
2022/07/13 05:11:08;;;;;;;5.15;2.28;;;25.90;1.00;;;;;;5150230;27;20059;-59
2022/07/13 05:13:33;;;;;;;3.35;2.20;;;26.10;1.00;;;;;;5152046;27;20042;-58
2022/07/13 05:15:59;;;;;;;3.15;2.20;;;26.20;1.00;;;;;;5152959;27;20065;-59
2022/07/13 05:18:25;;;;;;;2.80;2.15;;;26.20;1.00;;;;;;5151873;27;20026;-57
2022/07/13 05:20:50;;;;;;;3.53;2.50;;;26.20;1.00;;;;;;5151495;27;20027;-59
2022/07/13 05:23:16;;;;;;;6.00;3.03;;;26.20;1.00;;;;;;5150433;27;20472;-58
2022/07/13 05:25:42;;;;;;;3.67;2.30;;;26.30;1.00;;;;;;5153535;27;20043;-58
2022/07/13 05:28:07;;;;;;;2.88;2.53;;;26.20;1.00;;;;;;5150829;27;20421;-59
2022/07/13 05:30:33;;;;;;;4.05;2.08;;;26.20;1.00;;;;;;5151264;27;20023;-57
2022/07/13 05:32:59;;;;;;;6.30;2.60;;;26.30;1.00;;;;;;5148509;27;20428;-58
2022/07/13 05:35:30;;;;;;;4.50;3.03;;;26.30;1.00;;;;;;5143112;27;20026;-58
2022/07/13 05:37:55;;;;;;;4.20;2.17;;;26.30;1.00;;;;;;5141862;27;20039;-57
2022/07/13 05:40:21;;;;;;;6.05;2.30;;;26.40;1.00;;;;;;5140110;27;20030;-59
2022/07/13 05:42:47;;;;;;;5.22;2.60;;;26.30;1.00;;;;;;5145701;27;20026;-58
2022/07/13 05:45:12;;;;;;;5.47;2.60;;;26.30;1.00;;;;;;5145004;27;20044;-57
2022/07/13 05:47:44;;;;;;;3.72;2.50;;;26.30;1.00;;;;;;5149593;27;20091;-57
2022/07/13 05:50:12;;;;;;;3.80;3.03;;;26.30;1.00;;;;;;5149241;27;20149;-58
2022/07/13 05:52:38;;;;;;;7.25;2.60;;;26.20;1.00;;;;;;5153195;27;20137;-59
2022/07/13 05:55:04;;;;;;;3.72;2.22;;;26.20;1.00;;;;;;5151744;27;20119;-59
2022/07/13 05:57:30;;;;;;;4.63;2.58;;;26.20;1.00;;;;;;5151837;27;20091;-58
2022/07/13 05:59:55;;;;;;;6.05;2.30;;;26.20;1.00;;;;;;5142471;27;20023;-58
2022/07/13 06:02:21;;;;;;;4.97;2.60;;;26.10;1.00;;;;;;5149712;27;20023;-59
2022/07/13 06:04:46;;;;;;;4.03;2.40;;;26.10;1.00;;;;;;5149570;27;20363;-58
2022/07/13 06:07:12;;;;;;;5.35;2.83;;;26.10;1.00;;;;;;5155779;27;20027;-58
2022/07/13 06:09:38;;;;;;;5.85;2.70;;;25.90;1.00;;;;;;5154479;27;20027;-58
2022/07/13 06:12:03;;;;;;;3.65;2.63;;;26.10;1.00;;;;;;5154260;27;20026;-56
2022/07/13 06:14:29;;;;;;;5.00;2.10;;;26.20;1.00;;;;;;5150538;27;20023;-55
2022/07/13 06:16:54;;;;;;;6.53;2.67;;;26.40;1.00;;;;;;5149072;27;20134;-57
2022/07/13 06:19:20;;;;;;;4.45;2.40;;;26.30;1.00;;;;;;5151168;27;20023;-57
2022/07/13 06:21:46;;;;;;;8.25;2.67;;;26.40;1.00;;;;;;5153472;27;20027;-58
2022/07/13 06:24:11;;;;;;;2.25;1.88;;;26.50;1.00;;;;;;5155232;27;20345;-59
2022/07/13 06:26:37;;;;;;;2.83;2.20;;;26.60;1.00;;;;;;5152637;27;20030;-59
2022/07/13 06:29:02;;;;;;;6.53;1.92;;;26.60;1.00;;;;;;5153769;27;20030;-56
2022/07/13 06:31:28;;;;;;;5.15;2.50;;;26.60;1.00;;;;;;5150155;27;20472;-59
2022/07/13 06:33:54;;;;;;;5.00;3.15;;;26.50;1.00;;;;;;5153105;27;20181;-59
2022/07/13 06:36:20;;;;;;;6.45;5.50;;;26.70;1.00;;;;;;5151932;27;20110;-57
2022/07/13 06:38:45;;;;;;;4.03;3.15;;;26.60;1.00;;;;;;5152794;27;20019;-59
2022/07/13 06:41:11;;;;;;;3.90;2.88;;;26.70;1.00;;;;;;5150766;27;20106;-58
2022/07/13 06:43:37;;;;;;;4.80;2.30;;;26.70;1.00;;;;;;5154431;27;20133;-56
2022/07/13 06:46:02;;;;;;;3.40;2.35;;;26.70;1.00;;;;;;5149399;27;20022;-56
2022/07/13 06:48:28;;;;;;;5.53;2.58;;;26.50;1.00;;;;;;5152602;27;20513;-56
2022/07/13 06:50:54;;;;;;;4.10;2.38;;;26.50;1.00;;;;;;5150702;27;20019;-59
2022/07/13 06:53:19;;;;;;;7.53;2.53;;;26.50;1.00;;;;;;5149088;27;20066;-60
2022/07/13 06:55:45;;;;;;;5.40;2.35;;;26.80;1.00;;;;;;5150425;27;20094;-60
2022/07/13 06:58:10;;;;;;;4.10;2.53;;;26.90;1.00;;;;;;5145945;27;20042;-58
2022/07/13 07:00:36;;;;;;;6.70;3.08;;;26.90;1.00;;;;;;5146127;27;20435;-57
2022/07/13 07:03:02;;;;;;;9.93;2.28;;;26.90;1.00;;;;;;5153408;27;20031;-60
2022/07/13 07:05:27;;;;;;;3.10;2.05;;;27.00;1.00;;;;;;5154610;27;20058;-60
2022/07/13 07:07:53;;;;;;;3.10;1.90;;;27.00;1.00;;;;;;5147463;27;20027;-58
2022/07/13 07:10:19;;;;;;;4.88;1.98;;;26.90;1.00;;;;;;5151556;27;20015;-59
2022/07/13 07:12:44;;;;;;;4.05;1.90;;;27.00;1.00;;;;;;5153618;27;20027;-58
2022/07/13 07:15:10;;;;;;;6.63;1.95;;;27.10;1.00;;;;;;5153061;27;20105;-59
2022/07/13 07:17:56;;;;;;;3.15;2.15;;;27.00;1.00;;;;;;5149893;27;20034;-59
2022/07/13 07:20:21;;;;;;;3.55;2.13;;;27.00;1.00;;;;;;5153449;27;20031;-62
2022/07/13 07:22:47;;;;;;;2.63;2.03;;;27.10;1.00;;;;;;5150431;27;20495;-58
2022/07/13 07:25:13;;;;;;;3.40;1.70;;;27.10;1.00;;;;;;5156110;27;20023;-60
2022/07/13 07:27:43;;;;;;;4.50;2.15;;;27.20;1.00;;;;;;5151574;27;20023;-60
2022/07/13 07:30:09;;;;;;;6.35;1.60;;;27.20;1.00;;;;;;5153127;27;20022;-61
2022/07/13 07:32:35;;;;;;;5.28;1.88;;;27.20;1.00;;;;;;5145882;27;20019;-59
2022/07/13 07:35:00;;;;;;;3.00;2.38;;;27.20;1.00;;;;;;5150088;27;20209;-62
2022/07/13 07:37:26;;;;;;;3.15;2.25;;;27.20;1.00;;;;;;5149954;27;20324;-66
2022/07/13 07:39:52;;;;;;;6.38;2.53;;;27.30;1.00;;;;;;5152710;27;20023;-64
2022/07/13 07:42:18;;;;;;;3.22;2.90;;;27.30;1.00;;;;;;5150178;27;20027;-59
2022/07/13 07:44:44;;;;;;;3.15;2.25;;;27.20;1.00;;;;;;5148954;27;20011;-49
2022/07/13 07:47:10;;;;;;;3.45;2.17;;;27.30;1.00;;;;;;5145389;27;20410;-59
2022/07/13 07:49:36;;;;;;;5.82;2.30;;;27.40;1.00;;;;;;5152153;27;20033;-63
2022/07/13 07:52:02;;;;;;;5.32;2.70;;;27.50;1.00;;;;;;5146187;27;20027;-66
2022/07/13 07:54:27;;;;;;;5.65;3.25;;;27.40;1.00;;;;;;5150988;27;20033;-65
2022/07/13 07:56:53;;;;;;;6.95;2.67;;;27.50;1.00;;;;;;5147818;27;20106;-66
2022/07/13 07:59:19;;;;;;;4.05;2.50;;;27.60;1.00;;;;;;5150089;27;20026;-67
2022/07/13 08:01:44;;;;;;;4.10;2.55;;;27.60;1.00;;;;;;5148813;27;20059;-51
2022/07/13 08:04:10;;;;;;;3.15;2.15;;;27.60;1.00;;;;;;5150285;27;20391;-60
2022/07/13 08:06:38;;;;;;;4.07;3.60;;;27.60;1.00;;;;;;5149473;27;20034;-63
2022/07/13 08:09:04;;;;;;;3.83;2.50;;;27.70;1.00;;;;;;5153759;27;20026;-62
2022/07/13 08:11:29;;;;;;;3.15;2.85;;;27.70;1.00;;;;;;5149687;27;20023;-59
2022/07/13 08:13:55;;;;;;;3.78;3.47;;;27.80;1.00;;;;;;5147943;27;20085;-62
2022/07/13 08:16:21;;;;;;;2.55;2.38;;;27.80;1.00;;;;;;5150202;27;20061;-63
2022/07/13 08:18:46;;;;;;;2.80;2.10;;;27.90;1.00;;;;;;5147774;27;20488;-59
2022/07/13 08:21:12;;;;;;;3.58;2.20;;;27.90;1.00;;;;;;5133408;27;20047;-61
2022/07/13 08:23:51;;;;;;;3.45;2.17;;;27.90;1.00;;;;;;5154570;27;20074;-58
2022/07/13 08:26:29;;;;;;;5.38;2.70;;;28.00;1.00;;;;;;5148103;27;20440;-62
2022/07/13 08:28:57;;;;;;;4.70;3.08;;;28.20;1.00;;;;;;5144135;27;20022;-56
2022/07/13 08:31:24;;;;;;;4.88;2.28;;;28.30;1.00;;;;;;5151179;27;20030;-57
2022/07/13 08:39:20;;;;;;;2.88;1.75;;;28.40;1.00;;;;;;5152904;27;20038;-50
2022/07/13 08:41:46;;;;;;;2.50;1.70;;;28.20;1.00;;;;;;5148881;27;20031;-51
2022/07/13 08:44:12;;;;;;;4.72;2.83;;;28.30;1.00;;;;;;5150677;27;20376;-58
2022/07/13 08:46:38;;;;;;;3.58;2.85;;;28.50;1.00;;;;;;5150108;27;20035;-61
2022/07/13 08:49:05;;;;;;;2.80;2.17;;;28.60;1.00;;;;;;5149025;27;20041;-58
2022/07/13 08:51:32;;;;;;;5.15;3.63;;;28.50;1.00;;;;;;5149605;27;20030;-59
2022/07/13 08:53:59;;;;;;;2.53;2.33;;;28.60;1.00;;;;;;5151055;27;20027;-61
2022/07/13 08:56:25;;;;;;;3.10;2.35;;;28.70;1.00;;;;;;5146405;27;20034;-67
2022/07/13 08:58:54;;;;;;;3.28;2.40;;;28.80;1.00;;;;;;5148863;27;20077;-54
2022/07/13 09:01:20;;;;;;;3.22;2.10;;;28.80;1.00;;;;;;5151071;27;20033;-54
2022/07/13 09:03:47;;;;;;;3.58;2.35;;;28.90;1.00;;;;;;5152237;27;20014;-61
2022/07/13 09:06:40;;;;;;;2.65;2.20;;;28.80;1.00;;;;;;5140428;27;20030;-58
2022/07/13 09:09:06;;;;;;;3.93;2.83;;;28.80;1.00;;;;;;5145723;27;20118;-56
2022/07/13 09:11:32;;;;;;;3.13;1.77;;;28.80;1.00;;;;;;5148108;27;20034;-55
2022/07/13 09:13:58;;;;;;;2.85;2.45;;;28.80;1.00;;;;;;5150781;27;20034;-57
2022/07/13 09:16:26;;;;;;;3.58;2.28;;;28.80;1.00;;;;;;5150755;27;20359;-51
2022/07/13 09:18:53;;;;;;;2.50;2.30;;;28.80;1.00;;;;;;5144801;27;20054;-52
2022/07/13 09:21:20;;;;;;;3.45;2.70;;;28.80;1.00;;;;;;5143541;27;20464;-59
2022/07/13 09:23:54;;;;;;;4.78;2.95;;;28.90;1.00;;;;;;5147572;27;21000;-59
2022/07/13 09:26:21;;;;;;;2.92;2.60;;;28.90;1.00;;;;;;5147370;27;20025;-59
2022/07/13 09:28:51;;;;;;;3.35;2.40;;;28.90;1.00;;;;;;5150427;27;20475;-59
2022/07/13 09:31:18;;;;;;;4.47;2.40;;;28.90;1.00;;;;;;5150100;27;20015;-59
2022/07/13 09:33:46;;;;;;;2.60;2.40;;;28.90;1.00;;;;;;5149401;27;20051;-60
2022/07/13 09:36:16;;;;;;;2.45;2.25;;;28.90;1.00;;;;;;5149146;27;20079;-60
2022/07/13 09:38:47;;;;;;;3.05;2.30;;;28.90;1.00;;;;;;5148656;27;20098;-59
2022/07/13 09:41:24;;;;;;;3.55;2.42;;;29.00;1.00;;;;;;5147168;27;20031;-58
2022/07/13 09:46:55;;;;;;;9.43;2.90;;;29.00;1.00;;;;;;5141299;27;20415;-67
2022/07/13 09:49:37;;;;;;;4.72;2.67;;;29.10;1.00;;;;;;5144926;27;20451;-51
2022/07/13 09:52:05;;;;;;;4.25;2.42;;;29.10;1.00;;;;;;5143929;27;20337;-53
2022/07/13 09:54:32;;;;;;;3.83;2.72;;;29.20;1.00;;;;;;5150122;27;20026;-51
2022/07/13 09:57:01;;;;;;;2.83;2.53;;;29.20;1.00;;;;;;5143608;27;20027;-53
2022/07/13 09:59:28;;;;;;;3.30;2.13;;;29.30;1.00;;;;;;5147147;27;20046;-53
2022/07/13 10:01:54;;;;;;;3.97;2.60;;;29.30;1.00;;;;;;5150386;27;20373;-53
2022/07/13 10:04:20;;;;;;;3.35;2.55;;;29.30;1.00;;;;;;5150164;27;20030;-50
2022/07/13 10:06:46;;;;;;;4.13;2.80;;;29.40;1.00;;;;;;5147817;27;20033;-53
2022/07/13 10:09:12;;;;;;;4.03;2.30;;;29.40;1.00;;;;;;5140373;27;20022;-54
2022/07/13 10:11:38;;;;;;;4.55;3.00;;;29.50;1.00;;;;;;5147169;27;20452;-47
2022/07/13 10:14:07;;;;;;;7.20;2.67;;;29.50;1.00;;;;;;5151825;27;20031;-50
2022/07/13 10:16:33;;;;;;;4.35;2.97;;;29.60;1.00;;;;;;5146751;27;20041;-52
2022/07/13 10:19:04;;;;;;;6.10;3.08;;;29.90;1.00;;;;;;5146708;27;20027;-52
2022/07/13 10:21:54;;;;;;;3.85;2.45;;;29.90;1.00;;;;;;5149141;27;20023;-52
2022/07/13 10:24:20;;;;;;;3.28;2.63;;;29.90;1.00;;;;;;5147858;27;20109;-51
2022/07/13 10:26:50;;;;;;;6.30;3.10;;;29.90;1.00;;;;;;5149785;27;20361;-48
2022/07/13 10:29:15;;;;;;;5.30;2.65;;;30.10;1.00;;;;;;5149498;27;20019;-52
2022/07/13 10:31:42;;;;;;;3.83;2.28;;;30.20;1.00;;;;;;5149995;27;20037;-54
2022/07/13 10:34:10;;;;;;;2.70;2.50;;;30.30;1.00;;;;;;5148363;27;20112;-53
2022/07/13 10:36:57;;;;;;;4.82;2.55;;;30.20;1.00;;;;;;5147545;27;20033;-47
2022/07/13 10:39:25;;;;;;;3.45;2.42;;;30.20;1.00;;;;;;5144979;27;20116;-54
2022/07/13 10:42:01;;;;;;;6.68;2.72;;;30.40;1.00;;;;;;5140678;27;20030;-50
2022/07/13 10:44:32;;;;;;;3.30;2.75;;;30.40;1.00;;;;;;5149445;27;20459;-49
2022/07/13 10:46:59;;;;;;;4.25;2.40;;;30.40;1.00;;;;;;5147463;27;20651;-51
2022/07/13 10:49:30;;;;;;;4.10;2.85;;;30.40;1.00;;;;;;5146895;27;20126;-52
2022/07/13 10:51:59;;;;;;;3.72;3.03;;;30.50;1.00;;;;;;5146185;27;20030;-49
2022/07/13 10:54:25;;;;;;;2.50;2.30;;;30.60;1.00;;;;;;5147995;27;20073;-51
2022/07/13 10:57:17;;;;;;;5.18;2.70;;;30.70;1.00;;;;;;5154543;27;20034;-62
2022/07/13 10:59:49;;;;;;;4.13;2.38;;;30.70;1.00;;;;;;5152103;27;20141;-61
2022/07/13 11:02:47;;;;;;;4.20;2.65;;;30.90;1.00;;;;;;5153260;27;20071;-63
2022/07/13 11:05:13;;;;;;;3.47;2.60;;;30.90;1.00;;;;;;5139848;27;20034;-64
2022/07/13 11:07:43;;;;;;;6.05;2.80;;;31.20;1.00;;;;;;5150218;27;20634;-64
2022/07/13 11:10:33;;;;;;;3.65;3.30;;;31.30;1.00;;;;;;5138412;27;20110;-62
2022/07/13 11:13:10;;;;;;;5.68;3.22;;;31.60;1.00;;;;;;5151176;27;20061;-61
2022/07/13 11:15:55;;;;;;;4.20;3.42;;;31.40;1.00;;;;;;5141683;27;20086;-62
2022/07/13 11:18:21;;;;;;;6.68;3.35;;;31.40;1.00;;;;;;5153051;27;20462;-59
2022/07/13 11:20:57;;;;;;;8.20;3.75;;;31.60;1.00;;;;;;5153882;27;20102;-61
2022/07/13 11:26:52;;;;;;;4.63;4.18;;;31.70;1.00;;;;;;5146613;27;20034;-63
2022/07/13 11:29:37;;;;;;;7.35;3.25;;;32.10;1.00;;;;;;5152702;27;20161;-63
2022/07/13 11:32:04;;;;;;;3.38;3.08;;;32.40;1.00;;;;;;5151212;27;20080;-62
2022/07/13 11:34:29;;;;;;;6.97;3.03;;;33.30;1.00;;;;;;5152242;27;20038;-62
2022/07/13 11:36:58;;;;;;;7.35;3.38;;;34.60;1.00;;;;;;5150828;27;20119;-62
2022/07/13 11:39:26;;;;;;;6.60;3.33;;;36.10;1.00;;;;;;5148408;27;20027;-62
2022/07/13 11:41:53;;;;;;;3.90;3.60;;;35.60;1.00;;;;;;5148806;27;20099;-62
2022/07/13 11:44:25;;;;;;;4.45;3.85;;;34.50;1.00;;;;;;5143331;27;20023;-62
2022/07/13 11:46:51;;;;;;;5.05;3.08;;;34.20;1.00;;;;;;5149830;27;20055;-63
2022/07/13 11:49:17;;;;;;;6.35;3.95;;;35.60;1.00;;;;;;5152422;27;20072;-61
2022/07/13 11:51:44;;;;;;;5.43;4.38;;;36.40;1.00;;;;;;5153322;27;20061;-60
2022/07/13 11:54:15;;;;;;;4.88;3.65;;;37.50;1.00;;;;;;5153097;27;20019;-61
2022/07/13 11:56:58;;;;;;;3.88;3.50;;;38.40;1.00;;;;;;5153242;27;20031;-61
2022/07/13 11:59:39;;;;;;;5.80;3.80;;;38.40;1.00;;;;;;5152171;27;20043;-62
2022/07/13 12:02:08;;;;;;;4.15;3.55;;;37.90;1.00;;;;;;5151499;27;20026;-62
2022/07/13 12:04:45;;;;;;;5.75;4.13;;;39.10;1.00;;;;;;5145777;27;20802;-61
2022/07/13 12:07:23;;;;;;;5.55;4.07;;;38.50;1.00;;;;;;5154836;27;20095;-61
2022/07/13 12:09:52;;;;;;;4.25;3.92;;;40.90;1.00;;;;;;5151443;27;20097;-61
2022/07/13 12:12:19;;;;;;;4.50;4.10;;;40.30;1.00;;;;;;5141528;27;20097;-62
2022/07/13 12:14:45;;;;;;;4.03;3.72;;;40.00;1.00;;;;;;5149081;27;20424;-62
2022/07/13 12:17:11;;;;;;;4.88;4.30;;;38.70;1.00;;;;;;5152158;27;20137;-61
2022/07/13 12:19:37;;;;;;;5.38;4.97;;;38.30;1.00;;;;;;5153653;27;20464;-61
2022/07/13 12:22:05;;;;;;;4.65;3.80;;;37.80;1.00;;;;;;5131788;27;20090;-62
2022/07/13 12:24:31;;;;;;;5.95;4.10;;;37.80;1.00;;;;;;5146138;27;20114;-62
2022/07/13 12:26:57;;;;;;;6.32;4.43;;;37.70;1.00;;;;;;5149722;27;20434;-62
2022/07/13 12:29:31;;;;;;;3.70;3.40;;;38.00;1.00;;;;;;5149786;27;20114;-62
2022/07/13 12:32:01;;;;;;;6.40;4.30;;;39.40;1.00;;;;;;5142881;27;20046;-61
2022/07/13 12:34:27;;;;;;;5.03;4.53;;;38.20;1.00;;;;;;5142315;27;20053;-61
2022/07/13 12:36:53;;;;;;;6.75;4.25;;;37.20;1.00;;;;;;5142795;27;20035;-61
2022/07/13 12:39:20;;;;;;;4.53;3.42;;;36.20;1.00;;;;;;5143942;27;20049;-61
2022/07/13 12:41:55;;;;;;;4.20;3.50;;;35.50;1.00;;;;;;5146979;27;20678;-62
2022/07/13 12:44:28;;;;;;;5.18;3.85;;;35.40;1.00;;;;;;5141754;27;20080;-61
2022/07/13 12:46:55;;;;;;;4.35;3.55;;;35.30;1.00;;;;;;5149754;27;20090;-62
2022/07/13 12:49:39;;;;;;;5.18;4.00;;;34.80;1.00;;;;;;5151223;27;20091;-62
2022/07/13 12:52:09;;;;;;;5.07;3.83;;;34.70;1.00;;;;;;5149364;27;20483;-62
2022/07/13 12:54:49;;;;;;;5.25;3.65;;;34.80;1.00;;;;;;5146695;27;20065;-62
2022/07/13 12:57:21;;;;;;;3.88;3.58;;;34.50;1.00;;;;;;5147605;27;20497;-62
2022/07/13 13:00:21;;;;;;;4.28;3.30;;;34.40;1.00;;;;;;5150682;27;20026;-61
2022/07/13 13:02:47;;;;;;;5.43;3.95;;;34.50;1.00;;;;;;5137821;27;20038;-62
2022/07/13 13:05:12;;;;;;;5.15;3.60;;;34.20;1.00;;;;;;5149831;27;20449;-61
2022/07/13 13:07:39;;;;;;;3.75;3.45;;;34.10;1.00;;;;;;5149326;27;20026;-61
2022/07/13 13:10:06;;;;;;;5.15;3.55;;;34.20;1.00;;;;;;5148815;27;20034;-61
2022/07/13 13:12:32;;;;;;;3.88;3.40;;;34.10;1.00;;;;;;5151345;27;20455;-62